Time;durP1;ratioP1;P1;durP2;ratioP2;P2;SDS_P1;SDS_P2;PMS_P1;PMS_P2;Temp;Humidity;BMP_temperature;BMP_pressure;BME280_temperature;BME280_humidity;BME280_pressure;Samples;Min_cycle;Max_cycle;Signal;HPM_P1;HPM_P2
2022/11/24 00:01:20;;;;;;;;;;;;;;;30.75;26.94;99706.94;4975398;28;1189;-22
2022/11/24 00:03:46;;;;;;;;;;;;;;;30.50;26.80;99712.53;4975538;28;1098;-22
2022/11/24 00:06:12;;;;;;;;;;;;;;;30.15;27.45;99712.16;4976203;28;1110;-22
2022/11/24 00:08:38;;;;;;;;;;;;;;;30.49;27.13;99711.72;4962199;28;1177;-24
2022/11/24 00:11:07;;;;;;;;;;;;;;;30.75;26.85;99709.66;4976204;28;1898;-22
2022/11/24 00:13:32;;;;;;;;;;;;;;;30.38;27.13;99697.03;4975012;28;1078;-22
2022/11/24 00:16:08;;;;;;;;;;;;;;;30.18;27.46;99700.84;4971382;28;1923;-22
2022/11/24 00:18:33;;;;;;;;;;;;;;;30.13;27.72;99706.13;4968869;28;1189;-22
2022/11/24 00:20:58;;;;;;;;;;;;;;;30.42;27.15;99714.53;4976061;28;1217;-22
2022/11/24 00:23:23;;;;;;;;;;;;;;;30.67;26.12;99701.84;4975440;28;1109;-22
2022/11/24 00:25:49;;;;;;;;;;;;;;;30.34;27.12;99708.59;4975479;28;1188;-22
2022/11/24 00:28:14;;;;;;;;;;;;;;;30.51;26.98;99700.63;4976699;28;1082;-22
2022/11/24 00:30:39;;;;;;;;;;;;;;;30.72;26.87;99704.69;4979470;28;1911;-24
2022/11/24 00:33:04;;;;;;;;;;;;;;;30.30;26.93;99706.34;4979226;28;1150;-21
2022/11/24 00:35:30;;;;;;;;;;;;;;;29.94;27.33;99706.16;4979621;28;1122;-22
2022/11/24 00:37:55;;;;;;;;;;;;;;;30.18;27.58;99706.25;4978661;28;1180;-22
2022/11/24 00:40:20;;;;;;;;;;;;;;;30.27;27.58;99711.38;4979879;28;1165;-22
2022/11/24 00:42:46;;;;;;;;;;;;;;;30.60;26.90;99703.81;4979727;28;1165;-22
2022/11/24 00:45:11;;;;;;;;;;;;;;;30.34;26.86;99714.84;4978835;28;1114;-22
2022/11/24 00:47:36;;;;;;;;;;;;;;;30.06;27.36;99705.41;4974779;28;2097;-22
2022/11/24 00:50:01;;;;;;;;;;;;;;;30.34;27.31;99708.59;4978447;28;1899;-22
2022/11/24 00:52:27;;;;;;;;;;;;;;;30.76;26.90;99705.84;4979119;28;1101;-22
2022/11/24 00:54:52;;;;;;;;;;;;;;;30.38;26.76;99698.94;4978809;28;1126;-22
2022/11/24 00:57:17;;;;;;;;;;;;;;;30.10;27.12;99705.75;4979098;28;1299;-22
2022/11/24 00:59:43;;;;;;;;;;;;;;;30.17;27.38;99710.03;4979136;28;995;-22
2022/11/24 01:02:08;;;;;;;;;;;;;;;30.34;27.07;99703.16;4978061;28;940;-22
2022/11/24 01:04:33;;;;;;;;;;;;;;;30.67;26.88;99709.97;4978462;28;1098;-23
2022/11/24 01:06:58;;;;;;;;;;;;;;;30.38;27.04;99716.03;4977653;28;1161;-22
2022/11/24 01:09:24;;;;;;;;;;;;;;;29.97;27.67;99715.72;4966620;28;1166;-22
2022/11/24 01:12:01;;;;;;;;;;;;;;;30.49;27.24;99716.31;4978391;28;1902;-22
2022/11/24 01:14:27;;;;;;;;;;;;;;;30.88;26.85;99722.19;4978058;28;900;-22
2022/11/24 01:16:52;;;;;;;;;;;;;;;30.74;26.75;99716.16;4966005;28;2361;-22
2022/11/24 01:19:18;;;;;;;;;;;;;;;30.52;26.98;99713.97;4977782;28;1162;-22
2022/11/24 01:21:43;;;;;;;;;;;;;;;30.43;27.25;99708.03;4979124;28;1126;-22
2022/11/24 01:24:08;;;;;;;;;;;;;;;30.66;26.92;99708.34;4978112;28;1393;-24
2022/11/24 01:26:34;;;;;;;;;;;;;;;30.91;26.31;99710.06;4978106;28;924;-22
2022/11/24 01:28:59;;;;;;;;;;;;;;;30.43;26.99;99702.59;4978999;28;1137;-24
2022/11/24 01:31:24;;;;;;;;;;;;;;;30.53;26.97;99699.31;4978823;28;1966;-22
2022/11/24 01:33:50;;;;;;;;;;;;;;;30.68;26.75;99696.19;4978481;28;1205;-22
2022/11/24 01:36:15;;;;;;;;;;;;;;;30.68;26.25;99690.75;4978731;28;1177;-21
2022/11/24 01:38:40;;;;;;;;;;;;;;;30.13;27.45;99691.75;4977811;28;934;-22
2022/11/24 01:41:06;;;;;;;;;;;;;;;30.34;27.26;99687.72;4978512;28;1213;-22
2022/11/24 01:43:32;;;;;;;;;;;;;;;30.75;26.72;99689.81;4978089;28;1177;-22
2022/11/24 01:45:57;;;;;;;;;;;;;;;30.74;26.73;99693.59;4978165;28;1110;-22
2022/11/24 01:48:22;;;;;;;;;;;;;;;30.38;27.39;99688.09;4978404;28;1170;-22
2022/11/24 01:50:52;;;;;;;;;;;;;;;30.45;27.02;99694.22;4978247;28;1898;-22
2022/11/24 01:53:18;;;;;;;;;;;;;;;30.72;26.72;99701.97;4977695;28;1118;-23
2022/11/24 01:55:43;;;;;;;;;;;;;;;30.74;26.39;99699.84;4960760;28;1162;-22
2022/11/24 01:58:15;;;;;;;;;;;;;;;30.17;27.11;99692.94;4978221;28;1217;-22
2022/11/24 02:00:41;;;;;;;;;;;;;;;30.48;27.09;99690.25;4960994;28;1174;-22
2022/11/24 02:03:06;;;;;;;;;;;;;;;30.71;26.78;99680.50;4977478;28;1031;-22
2022/11/24 02:05:33;;;;;;;;;;;;;;;30.71;26.41;99684.03;4960787;28;1138;-22
2022/11/24 02:07:59;;;;;;;;;;;;;;;30.18;27.51;99689.97;4968806;28;1137;-22
2022/11/24 02:10:24;;;;;;;;;;;;;;;30.51;27.04;99685.16;4973132;28;1949;-22
2022/11/24 02:12:50;;;;;;;;;;;;;;;30.64;26.93;99686.84;4978088;28;1007;-22
2022/11/24 02:15:16;;;;;;;;;;;;;;;30.77;25.99;99688.53;4975601;28;1247;-22
2022/11/24 02:17:41;;;;;;;;;;;;;;;30.28;27.28;99692.19;4977897;28;1149;-22
2022/11/24 02:20:07;;;;;;;;;;;;;;;30.40;27.11;99681.38;4977984;28;1188;-22
2022/11/24 02:22:47;;;;;;;;;;;;;;;30.77;26.63;99676.84;4977872;28;1208;-23
2022/11/24 02:25:24;;;;;;;;;;;;;;;30.70;26.51;99681.56;4959275;28;1178;-22
2022/11/24 02:27:49;;;;;;;;;;;;;;;30.34;27.28;99676.88;4977179;28;1166;-25
2022/11/24 02:30:15;;;;;;;;;;;;;;;30.38;27.12;99683.47;4977482;28;1958;-23
2022/11/24 02:32:40;;;;;;;;;;;;;;;30.75;26.72;99673.50;4977654;28;1177;-23
2022/11/24 02:35:06;;;;;;;;;;;;;;;30.84;26.14;99680.31;4960429;28;959;-22
2022/11/24 02:37:31;;;;;;;;;;;;;;;30.27;27.22;99673.41;4976946;28;1095;-22
2022/11/24 02:39:56;;;;;;;;;;;;;;;30.64;26.93;99670.56;4977517;28;1122;-22
2022/11/24 02:42:22;;;;;;;;;;;;;;;30.88;26.46;99676.03;4977407;28;1273;-23
2022/11/24 02:44:48;;;;;;;;;;;;;;;30.55;26.86;99682.81;4959492;28;1301;-23
2022/11/24 02:47:13;;;;;;;;;;;;;;;30.41;27.12;99683.00;4977364;28;1193;-22
2022/11/24 02:49:38;;;;;;;;;;;;;;;30.50;26.88;99685.38;4977448;28;1165;-22
2022/11/24 02:52:04;;;;;;;;;;;;;;;30.82;26.48;99685.13;4975979;28;1985;-22
2022/11/24 02:54:29;;;;;;;;;;;;;;;30.88;26.00;99683.38;4977327;28;1193;-22
2022/11/24 02:56:54;;;;;;;;;;;;;;;30.31;27.13;99682.75;4976989;28;1048;-22
2022/11/24 02:59:20;;;;;;;;;;;;;;;30.50;26.96;99683.50;4977071;28;1229;-23
2022/11/24 03:01:45;;;;;;;;;;;;;;;30.70;26.61;99692.41;4976622;28;1149;-22
2022/11/24 03:04:11;;;;;;;;;;;;;;;30.84;26.15;99691.16;4976763;28;1142;-22
2022/11/24 03:06:37;;;;;;;;;;;;;;;30.46;26.93;99686.94;4976528;28;1173;-23
2022/11/24 03:09:02;;;;;;;;;;;;;;;30.45;27.00;99686.09;4963566;28;1134;-22
2022/11/24 03:11:27;;;;;;;;;;;;;;;30.60;26.94;99695.69;4977168;28;1906;-22
2022/11/24 03:13:52;;;;;;;;;;;;;;;30.77;26.83;99687.69;4976784;28;1197;-22
2022/11/24 03:16:18;;;;;;;;;;;;;;;30.72;26.44;99693.81;4976944;28;1098;-22
2022/11/24 03:18:43;;;;;;;;;;;;;;;30.40;27.10;99684.06;4977194;28;1117;-23
2022/11/24 03:21:08;;;;;;;;;;;;;;;30.53;26.92;99691.19;4976872;28;1134;-22
2022/11/24 03:23:34;;;;;;;;;;;;;;;30.72;26.73;99693.00;4976691;28;1138;-22
2022/11/24 03:26:15;;;;;;;;;;;;;;;30.90;26.12;99692.09;4976233;28;1161;-23
2022/11/24 03:28:40;;;;;;;;;;;;;;;30.38;27.13;99691.63;4976551;28;1220;-22
2022/11/24 03:31:06;;;;;;;;;;;;;;;30.52;26.84;99686.00;4977151;28;1910;-22
2022/11/24 03:33:31;;;;;;;;;;;;;;;30.70;26.70;99693.22;4976346;28;1204;-22
2022/11/24 03:35:56;;;;;;;;;;;;;;;30.86;25.97;99694.47;4976413;28;1169;-23
2022/11/24 03:38:22;;;;;;;;;;;;;;;30.32;27.02;99703.41;4976295;28;1177;-22
2022/11/24 03:40:47;;;;;;;;;;;;;;;30.49;27.16;99698.16;4977041;28;1327;-22
2022/11/24 03:43:12;;;;;;;;;;;;;;;30.86;26.46;99707.22;4976452;28;1153;-22
2022/11/24 03:45:38;;;;;;;;;;;;;;;30.88;26.14;99715.97;4976617;28;1216;-22
2022/11/24 03:48:03;;;;;;;;;;;;;;;30.33;27.18;99731.38;4976066;28;1138;-22
2022/11/24 03:50:29;;;;;;;;;;;;;;;30.54;27.07;99738.16;4975573;28;1956;-22
2022/11/24 03:52:54;;;;;;;;;;;;;;;30.73;26.62;99736.19;4976828;28;1241;-22
2022/11/24 03:55:19;;;;;;;;;;;;;;;30.91;26.19;99748.88;4976289;28;1143;-23
2022/11/24 03:57:45;;;;;;;;;;;;;;;30.41;27.11;99744.59;4976280;28;1174;-22
2022/11/24 04:00:10;;;;;;;;;;;;;;;30.45;27.10;99744.97;4976062;28;1457;-22
2022/11/24 04:02:36;;;;;;;;;;;;;;;30.68;26.81;99744.19;4977647;28;1126;-22
2022/11/24 04:05:01;;;;;;;;;;;;;;;30.83;26.09;99743.78;4980172;28;1142;-24
2022/11/24 04:07:27;;;;;;;;;;;;;;;30.49;26.87;99748.88;4979119;28;1142;-22
2022/11/24 04:09:52;;;;;;;;;;;;;;;30.49;27.18;99754.31;4979996;28;1234;-22
2022/11/24 04:15:01;;;;;;;;;;;;;;;30.89;26.43;99751.03;4979471;28;1157;-22
2022/11/24 04:17:26;;;;;;;;;;;;;;;30.61;26.89;99751.63;4979909;28;1083;-23
2022/11/24 04:19:52;;;;;;;;;;;;;;;30.33;27.26;99748.44;4979395;28;1161;-23
2022/11/24 04:22:17;;;;;;;;;;;;;;;30.26;27.31;99751.25;4979513;28;1063;-23
2022/11/24 04:24:42;;;;;;;;;;;;;;;30.50;27.02;99759.50;4979626;28;1212;-24
2022/11/24 04:27:07;;;;;;;;;;;;;;;30.82;26.35;99760.31;4979456;28;1176;-23
2022/11/24 04:29:33;;;;;;;;;;;;;;;30.99;26.21;99757.75;4979804;28;967;-23
2022/11/24 04:31:58;;;;;;;;;;;;;;;30.55;26.18;99764.22;4978391;28;1906;-22
2022/11/24 04:34:23;;;;;;;;;;;;;;;28.77;25.31;99749.09;4979665;28;1192;-22
2022/11/24 04:36:48;;;;;;;;;;;;;;;28.59;26.95;99756.06;4979246;28;1263;-21
2022/11/24 04:39:14;;;;;;;;;;;;;;;28.66;26.81;99759.56;4978782;28;1069;-21
2022/11/24 04:41:39;;;;;;;;;;;;;;;28.34;26.67;99757.66;4979177;28;1010;-21
2022/11/24 04:44:04;;;;;;;;;;;;;;;28.24;26.79;99765.38;4974112;28;1559;-21
2022/11/24 04:46:30;;;;;;;;;;;;;;;28.13;27.08;99760.66;4979700;28;1079;-21
2022/11/24 04:48:55;;;;;;;;;;;;;;;28.18;26.54;99768.91;4978443;28;1203;-21
2022/11/24 04:51:20;;;;;;;;;;;;;;;28.25;26.72;99767.03;4977048;28;1965;-22
2022/11/24 04:53:47;;;;;;;;;;;;;;;28.27;26.34;99778.47;4978723;28;1233;-22
2022/11/24 04:56:12;;;;;;;;;;;;;;;29.11;25.98;99778.66;4978791;28;1297;-23
2022/11/24 04:58:37;;;;;;;;;;;;;;;30.15;25.28;99781.81;4978845;28;1191;-23
2022/11/24 05:01:05;;;;;;;;;;;;;;;30.82;24.51;99798.31;4977954;28;979;-21
2022/11/24 05:03:30;;;;;;;;;;;;;;;29.30;23.31;99787.66;4977732;28;905;-22
2022/11/24 05:05:57;;;;;;;;;;;;;;;27.84;25.21;99790.66;4978788;28;1189;-22
2022/11/24 05:08:22;;;;;;;;;;;;;;;26.96;25.86;99796.03;4978888;28;1129;-21
2022/11/24 05:10:47;;;;;;;;;;;;;;;26.58;26.86;99787.44;4978877;28;1895;-20
2022/11/24 05:13:13;;;;;;;;;;;;;;;26.60;27.88;99800.72;4978062;28;1110;-23
2022/11/24 05:15:38;;;;;;;;;;;;;;;26.89;27.01;99801.44;4977748;28;1299;-23
2022/11/24 05:18:07;;;;;;;;;;;;;;;26.87;26.22;99808.88;4979365;28;1146;-22
2022/11/24 05:20:33;;;;;;;;;;;;;;;26.92;26.19;99810.97;4978583;28;1201;-22
2022/11/24 05:23:02;;;;;;;;;;;;;;;26.77;26.75;99811.97;4977664;28;1293;-26
2022/11/24 05:25:28;;;;;;;;;;;;;;;26.64;26.21;99812.78;4971950;28;1909;-25
2022/11/24 05:27:53;;;;;;;;;;;;;;;26.58;26.70;99816.25;4974281;28;1795;-24
2022/11/24 05:30:18;;;;;;;;;;;;;;;26.92;26.35;99819.06;4978470;28;1906;-23
2022/11/24 05:32:44;;;;;;;;;;;;;;;26.56;26.70;99824.56;4977598;28;2141;-23
2022/11/24 05:35:09;;;;;;;;;;;;;;;26.50;27.00;99825.38;4977734;28;2115;-23
2022/11/24 05:37:34;;;;;;;;;;;;;;;26.36;27.19;99808.31;4977922;28;1889;-23
2022/11/24 05:39:59;;;;;;;;;;;;;;;27.05;27.93;99813.72;4977805;28;2106;-22
2022/11/24 05:42:40;;;;;;;;;;;;;;;26.89;28.63;99815.72;4978107;28;1003;-22
2022/11/24 05:45:08;;;;;;;;;;;;;;;26.61;29.33;99821.28;4965242;28;1082;-22
2022/11/24 05:47:33;;;;;;;;;;;;;;;26.87;29.41;99825.06;4978133;28;1182;-22
2022/11/24 05:49:58;;;;;;;;;;;;;;;26.97;29.95;99824.69;4977587;28;1506;-21
2022/11/24 05:52:24;;;;;;;;;;;;;;;27.12;29.57;99829.94;4976828;28;1967;-22
2022/11/24 05:54:49;;;;;;;;;;;;;;;27.32;29.38;99829.13;4977105;28;1450;-21
2022/11/24 05:57:15;;;;;;;;;;;;;;;26.98;29.76;99832.56;4978250;28;1098;-22
2022/11/24 05:59:40;;;;;;;;;;;;;;;26.58;30.76;99837.84;4977966;28;1141;-22
2022/11/24 06:02:06;;;;;;;;;;;;;;;26.83;30.35;99848.09;4977356;28;1029;-22
2022/11/24 06:04:31;;;;;;;;;;;;;;;26.93;30.69;99845.00;4976748;28;1019;-22
2022/11/24 06:06:56;;;;;;;;;;;;;;;27.17;30.28;99861.72;4977000;28;1224;-21
2022/11/24 06:09:21;;;;;;;;;;;;;;;27.31;29.92;99857.16;4977707;28;2457;-22
2022/11/24 06:11:47;;;;;;;;;;;;;;;26.80;30.73;99856.59;4977258;28;1961;-21
2022/11/24 06:14:13;;;;;;;;;;;;;;;26.76;30.71;99859.72;4959463;28;1195;-22
2022/11/24 06:16:38;;;;;;;;;;;;;;;27.13;30.79;99855.88;4977565;28;1212;-22
2022/11/24 06:19:03;;;;;;;;;;;;;;;27.40;30.28;99861.31;4977914;28;1129;-24
2022/11/24 06:21:29;;;;;;;;;;;;;;;27.40;30.18;99855.91;4977823;28;1082;-22
2022/11/24 06:23:54;;;;;;;;;;;;;;;27.08;30.13;99864.59;4976201;28;1181;-22
2022/11/24 06:26:20;;;;;;;;;;;;;;;26.73;31.15;99859.28;4977386;28;1157;-22
2022/11/24 06:28:45;;;;;;;;;;;;;;;27.02;30.77;99874.34;4977222;28;953;-22
2022/11/24 06:31:10;;;;;;;;;;;;;;;27.26;30.52;99872.09;4977445;28;1898;-22
2022/11/24 06:33:36;;;;;;;;;;;;;;;27.40;30.41;99877.53;4976759;28;1169;-22
2022/11/24 06:36:03;;;;;;;;;;;;;;;27.02;30.81;99885.16;4976977;28;1158;-23
2022/11/24 06:38:28;;;;;;;;;;;;;;;26.83;31.00;99877.78;4976759;28;2418;-22
2022/11/24 06:41:05;;;;;;;;;;;;;;;26.94;31.08;99879.06;4977233;28;897;-22
2022/11/24 06:43:30;;;;;;;;;;;;;;;26.86;31.22;99880.09;4977088;28;1141;-23
2022/11/24 06:45:55;;;;;;;;;;;;;;;27.12;30.72;99879.38;4976795;28;1094;-22
2022/11/24 06:48:21;;;;;;;;;;;;;;;27.37;30.77;99886.03;4976946;28;1106;-23
2022/11/24 06:50:46;;;;;;;;;;;;;;;27.47;30.63;99883.78;4963413;28;1911;-22
2022/11/24 06:53:11;;;;;;;;;;;;;;;27.55;30.24;99885.44;4975620;28;963;-22
2022/11/24 06:55:37;;;;;;;;;;;;;;;27.36;31.05;99881.69;4976446;28;1146;-22
2022/11/24 06:58:03;;;;;;;;;;;;;;;27.20;30.92;99889.13;4976945;28;1141;-22
2022/11/24 07:00:30;;;;;;;;;;;;;;;27.35;30.65;99885.41;4976855;28;1086;-23
2022/11/24 07:02:56;;;;;;;;;;;;;;;27.65;29.98;99886.88;4976508;28;1134;-27
2022/11/24 07:05:21;;;;;;;;;;;;;;;27.63;29.99;99878.97;4975678;28;906;-22
2022/11/24 07:07:46;;;;;;;;;;;;;;;27.39;30.72;99879.38;4976439;28;996;-22
2022/11/24 07:10:12;;;;;;;;;;;;;;;27.30;30.97;99879.78;4976123;28;2524;-22
2022/11/24 07:12:37;;;;;;;;;;;;;;;27.20;30.98;99881.03;4976641;28;1130;-26
2022/11/24 07:15:03;;;;;;;;;;;;;;;27.56;30.40;99873.56;4976162;28;1074;-23
2022/11/24 07:17:28;;;;;;;;;;;;;;;27.39;30.83;99867.78;4975348;28;987;-27
2022/11/24 07:19:53;;;;;;;;;;;;;;;27.28;30.79;99866.50;4976706;28;1098;-23
2022/11/24 07:22:18;;;;;;;;;;;;;;;27.43;30.92;99863.59;4976306;28;1267;-23
2022/11/24 07:24:44;;;;;;;;;;;;;;;27.19;31.25;99867.75;4975775;28;1245;-23
2022/11/24 07:27:09;;;;;;;;;;;;;;;27.33;30.74;99869.41;4975620;28;1236;-23
2022/11/24 07:29:34;;;;;;;;;;;;;;;27.16;31.12;99865.44;4975795;28;925;-23
2022/11/24 07:32:00;;;;;;;;;;;;;;;27.04;30.94;99857.13;4976061;28;1919;-22
2022/11/24 07:34:25;;;;;;;;;;;;;;;27.00;30.81;99853.97;4976225;28;1209;-23
2022/11/24 07:36:50;;;;;;;;;;;;;;;27.08;31.09;99853.81;4976274;28;1209;-23
2022/11/24 07:39:15;;;;;;;;;;;;;;;27.10;30.91;99856.28;4982526;28;2537;-22
2022/11/24 07:41:41;;;;;;;;;;;;;;;27.05;30.72;99861.47;4982251;28;912;-23
2022/11/24 07:44:06;;;;;;;;;;;;;;;27.04;31.05;99871.47;4982417;28;1161;-23
2022/11/24 07:46:31;;;;;;;;;;;;;;;27.01;31.37;99879.91;4982278;28;1138;-22
2022/11/24 07:48:57;;;;;;;;;;;;;;;27.00;31.53;99881.78;4982225;28;1162;-22
2022/11/24 07:51:22;;;;;;;;;;;;;;;27.07;30.98;99881.00;4981729;28;2021;-22
2022/11/24 07:53:48;;;;;;;;;;;;;;;27.05;31.03;99889.31;4981657;28;1103;-23
2022/11/24 07:56:13;;;;;;;;;;;;;;;27.01;30.61;99879.91;4981938;28;1244;-22
2022/11/24 07:58:38;;;;;;;;;;;;;;;27.04;30.57;99879.56;4982386;28;1312;-22
2022/11/24 08:01:11;;;;;;;;;;;;;;;27.00;30.41;99876.38;4981251;28;1273;-22
2022/11/24 08:03:36;;;;;;;;;;;;;;;27.16;30.44;99876.25;4981722;28;1312;-23
2022/11/24 08:06:01;;;;;;;;;;;;;;;27.25;30.34;99883.13;4981613;28;1407;-22
2022/11/24 08:08:26;;;;;;;;;;;;;;;27.17;30.25;99883.31;4981522;28;2379;-22
2022/11/24 08:10:52;;;;;;;;;;;;;;;27.26;30.19;99880.22;4981740;28;1895;-22
2022/11/24 08:13:17;;;;;;;;;;;;;;;27.14;30.09;99877.28;4981968;28;1375;-23
2022/11/24 08:15:43;;;;;;;;;;;;;;;27.10;30.10;99888.69;4982152;28;1288;-22
2022/11/24 08:18:08;;;;;;;;;;;;;;;27.18;29.86;99893.06;4981647;28;901;-24
2022/11/24 08:20:33;;;;;;;;;;;;;;;27.10;30.46;99880.59;4982026;28;1111;-22
2022/11/24 08:22:59;;;;;;;;;;;;;;;27.22;30.01;99875.44;4976242;28;1309;-22
2022/11/24 08:25:30;;;;;;;;;;;;;;;27.14;30.39;99873.75;4981365;28;1138;-22
2022/11/24 08:27:55;;;;;;;;;;;;;;;27.00;30.49;99873.69;4982302;28;1129;-22
2022/11/24 08:30:20;;;;;;;;;;;;;;;27.00;30.23;99876.38;4967861;28;1967;-22
2022/11/24 08:32:46;;;;;;;;;;;;;;;27.14;30.00;99871.88;4982632;28;1193;-22
2022/11/24 08:35:11;;;;;;;;;;;;;;;27.11;30.52;99876.88;4981632;28;1138;-22
2022/11/24 08:37:36;;;;;;;;;;;;;;;27.17;30.38;99876.03;4982086;28;1327;-22
2022/11/24 08:40:02;;;;;;;;;;;;;;;27.03;30.62;99877.88;4981452;28;2530;-22
2022/11/24 08:42:27;;;;;;;;;;;;;;;26.96;30.45;99874.31;4982546;28;1212;-22
2022/11/24 08:44:52;;;;;;;;;;;;;;;26.85;30.87;99878.41;4981736;28;1134;-22
2022/11/24 08:47:18;;;;;;;;;;;;;;;26.67;30.84;99873.56;4981501;28;1079;-22
2022/11/24 08:49:43;;;;;;;;;;;;;;;26.81;30.55;99880.69;4977843;28;1342;-21
2022/11/24 08:52:08;;;;;;;;;;;;;;;26.60;31.31;99873.53;4977989;28;1957;-22
2022/11/24 08:54:33;;;;;;;;;;;;;;;26.86;30.54;99882.78;4978766;28;1106;-22
2022/11/24 08:56:59;;;;;;;;;;;;;;;26.73;30.93;99879.00;4978690;28;1106;-22
2022/11/24 08:59:24;;;;;;;;;;;;;;;26.84;30.76;99874.88;4978077;28;1162;-22
2022/11/24 09:01:49;;;;;;;;;;;;;;;26.89;30.46;99880.50;4978688;28;1228;-22
2022/11/24 09:04:15;;;;;;;;;;;;;;;26.77;30.66;99882.97;4978001;28;1119;-21
2022/11/24 09:06:40;;;;;;;;;;;;;;;26.92;30.42;99890.06;4978070;28;1149;-21
2022/11/24 09:09:05;;;;;;;;;;;;;;;27.01;30.33;99890.69;4977996;28;2322;-21
2022/11/24 09:11:31;;;;;;;;;;;;;;;26.93;30.42;99886.31;4978219;28;1910;-21
2022/11/24 09:13:57;;;;;;;;;;;;;;;26.92;30.37;99884.66;4978977;28;1129;-22
2022/11/24 09:16:24;;;;;;;;;;;;;;;26.90;30.26;99882.19;4978106;28;1098;-22
2022/11/24 09:18:53;;;;;;;;;;;;;;;26.92;30.37;99878.44;4978215;28;1252;-21
2022/11/24 09:21:19;;;;;;;;;;;;;;;26.89;30.35;99882.38;4978582;28;1138;-22
2022/11/24 09:23:45;;;;;;;;;;;;;;;26.89;30.10;99880.50;4977581;28;1201;-22
2022/11/24 09:26:11;;;;;;;;;;;;;;;26.63;30.88;99873.13;4978085;28;1359;-21
2022/11/24 09:28:36;;;;;;;;;;;;;;;26.83;30.30;99875.91;4977476;28;1275;-21
2022/11/24 09:31:05;;;;;;;;;;;;;;;26.73;30.86;99876.31;4977456;28;1966;-22
2022/11/24 09:33:31;;;;;;;;;;;;;;;26.66;30.88;99878.13;4977937;28;1327;-21
2022/11/24 09:35:57;;;;;;;;;;;;;;;26.68;30.58;99877.94;4977326;28;1292;-21
2022/11/24 09:38:22;;;;;;;;;;;;;;;26.68;30.74;99876.06;4975308;28;1833;-21
2022/11/24 09:40:47;;;;;;;;;;;;;;;26.62;31.06;99877.72;4973369;28;877;-22
2022/11/24 09:43:19;;;;;;;;;;;;;;;26.56;31.14;99875.00;4977489;28;1359;-22
2022/11/24 09:45:50;;;;;;;;;;;;;;;26.59;30.97;99874.59;4960201;28;1423;-21
2022/11/24 09:48:20;;;;;;;;;;;;;;;26.58;31.09;99864.81;4977871;28;1343;-22
2022/11/24 09:50:45;;;;;;;;;;;;;;;26.72;30.99;99880.03;4976984;28;1976;-21
2022/11/24 09:53:31;;;;;;;;;;;;;;;26.62;31.19;99869.63;4960115;28;1413;-21
2022/11/24 09:56:02;;;;;;;;;;;;;;;26.51;31.47;99876.41;4944316;28;1291;-22
2022/11/24 09:58:47;;;;;;;;;;;;;;;26.21;31.64;99867.72;4975646;28;1198;-21
2022/11/24 10:01:28;;;;;;;;;;;;;;;26.19;32.12;99862.53;4976130;28;1159;-21
2022/11/24 10:03:53;;;;;;;;;;;;;;;26.19;32.08;99869.78;4978048;28;1182;-21
2022/11/24 10:06:22;;;;;;;;;;;;;;;26.68;31.54;99867.97;4976664;28;1276;-21
2022/11/24 10:08:59;;;;;;;;;;;;;;;26.76;30.81;99869.66;4977475;28;2263;-21
2022/11/24 10:11:30;;;;;;;;;;;;;;;26.74;31.00;99866.34;4977366;28;1902;-21
2022/11/24 10:13:58;;;;;;;;;;;;;;;26.38;31.51;99858.31;4973283;28;1237;-21
2022/11/24 10:16:39;;;;;;;;;;;;;;;26.74;30.96;99861.75;4977382;28;1098;-21
2022/11/24 10:19:13;;;;;;;;;;;;;;;26.83;30.79;99862.44;4977191;28;968;-21
2022/11/24 10:22:02;;;;;;;;;;;;;;;26.87;30.64;99866.41;4960048;28;1114;-22
2022/11/24 10:24:33;;;;;;;;;;;;;;;26.87;31.03;99865.56;4971808;28;1203;-22
2022/11/24 10:27:06;;;;;;;;;;;;;;;26.82;31.00;99868.03;4977738;28;1126;-22
2022/11/24 10:29:32;;;;;;;;;;;;;;;26.71;31.39;99862.16;4959929;28;1142;-21
2022/11/24 10:31:58;;;;;;;;;;;;;;;26.59;31.55;99864.63;4959793;28;1911;-22
2022/11/24 10:34:28;;;;;;;;;;;;;;;26.80;31.45;99870.09;4959291;28;1158;-21
2022/11/24 10:36:57;;;;;;;;;;;;;;;26.75;31.20;99874.25;4977292;28;1177;-22
2022/11/24 10:39:28;;;;;;;;;;;;;;;26.57;31.37;99874.78;4960014;28;1891;-22
2022/11/24 10:42:01;;;;;;;;;;;;;;;26.53;31.67;99873.50;4963812;28;1146;-22
2022/11/24 10:44:27;;;;;;;;;;;;;;;26.73;32.05;99876.31;4985393;28;1086;-23
2022/11/24 10:46:52;;;;;;;;;;;;;;;26.91;32.30;99883.00;4959764;28;1130;-21
2022/11/24 10:49:18;;;;;;;;;;;;;;;26.65;31.67;99880.00;4977222;28;1121;-21
2022/11/24 10:52:04;;;;;;;;;;;;;;;26.79;31.79;99882.75;4959415;28;1910;-21
2022/11/24 10:54:29;;;;;;;;;;;;;;;26.91;31.85;99883.00;4976059;28;940;-21
2022/11/24 10:56:55;;;;;;;;;;;;;;;26.33;32.68;99890.44;4976699;28;1173;-21
2022/11/24 10:59:23;;;;;;;;;;;;;;;26.28;32.70;99884.75;4976964;28;1169;-20
2022/11/24 11:01:48;;;;;;;;;;;;;;;26.64;31.91;99886.41;4976133;28;1224;-21
2022/11/24 11:04:17;;;;;;;;;;;;;;;27.06;30.97;99882.03;4958626;28;1174;-21
2022/11/24 11:06:43;;;;;;;;;;;;;;;26.41;32.12;99884.03;4974208;28;1200;-22
2022/11/24 11:09:08;;;;;;;;;;;;;;;26.02;33.22;99887.13;4975816;28;2533;-23
2022/11/24 11:11:33;;;;;;;;;;;;;;;26.32;32.30;99886.03;4976607;28;1906;-22
2022/11/24 11:13:59;;;;;;;;;;;;;;;26.54;31.56;99883.28;4975813;28;1169;-22
2022/11/24 11:16:34;;;;;;;;;;;;;;;26.51;31.78;99884.50;4976486;28;1463;-22
2022/11/24 11:19:00;;;;;;;;;;;;;;;26.32;32.19;99883.34;4976272;28;1131;-21
2022/11/24 11:21:38;;;;;;;;;;;;;;;26.88;31.53;99886.09;4976799;28;1106;-21
2022/11/24 11:24:04;;;;;;;;;;;;;;;27.31;30.73;99886.88;4975529;28;1157;-23
2022/11/24 11:26:30;;;;;;;;;;;;;;;27.93;29.63;99892.09;4958379;28;1347;-21
2022/11/24 11:28:59;;;;;;;;;;;;;;;27.57;29.71;99890.63;4977339;28;1170;-21
2022/11/24 11:31:24;;;;;;;;;;;;;;;27.39;30.40;99892.88;4975267;28;1968;-21
2022/11/24 11:33:54;;;;;;;;;;;;;;;28.11;29.92;99890.63;4975786;28;1290;-22
2022/11/24 11:36:19;;;;;;;;;;;;;;;28.69;28.72;99899.03;4976727;28;1067;-22
2022/11/24 11:38:44;;;;;;;;;;;;;;;29.27;27.78;99893.75;4958881;28;2350;-22
2022/11/24 11:41:12;;;;;;;;;;;;;;;29.69;27.22;99904.09;4959049;28;1126;-22
2022/11/24 11:43:39;;;;;;;;;;;;;;;29.63;27.21;99903.09;4958535;28;905;-22
2022/11/24 11:46:16;;;;;;;;;;;;;;;29.80;27.09;99913.38;4958945;28;1154;-23
2022/11/24 11:48:45;;;;;;;;;;;;;;;29.13;27.59;99910.06;4976322;28;1114;-22
2022/11/24 11:51:29;;;;;;;;;;;;;;;28.22;28.42;99914.31;4958755;28;1898;-21
2022/11/24 11:54:00;;;;;;;;;;;;;;;29.32;27.40;99911.00;4975740;28;1193;-22
2022/11/24 11:56:25;;;;;;;;;;;;;;;29.64;26.71;99912.91;4975950;28;1138;-21
2022/11/24 11:59:10;;;;;;;;;;;;;;;29.70;26.35;99917.44;4976623;28;980;-23
2022/11/24 12:01:53;;;;;;;;;;;;;;;29.73;26.21;99918.03;4976355;28;1505;-21
2022/11/24 12:04:24;;;;;;;;;;;;;;;29.76;26.02;99921.13;4977068;28;1213;-22
2022/11/24 12:06:50;;;;;;;;;;;;;;;28.26;27.31;99919.31;4958432;28;1198;-21
2022/11/24 12:09:19;;;;;;;;;;;;;;;28.56;27.58;99926.97;4976489;28;2577;-22
2022/11/24 12:11:44;;;;;;;;;;;;;;;29.38;26.37;99917.41;4975570;28;1972;-22
2022/11/24 12:14:11;;;;;;;;;;;;;;;29.70;25.48;99930.97;4975225;28;1366;-22
2022/11/24 12:16:45;;;;;;;;;;;;;;;30.09;25.25;99921.88;4975715;28;1098;-22
2022/11/24 12:19:17;;;;;;;;;;;;;;;28.76;26.92;99920.66;4975585;28;886;-22
2022/11/24 12:21:46;;;;;;;;;;;;;;;28.24;28.03;99924.94;4958879;28;1181;-21
2022/11/24 12:24:20;;;;;;;;;;;;;;;29.13;27.08;99926.31;4977708;28;1094;-21
2022/11/24 12:26:48;;;;;;;;;;;;;;;29.46;26.67;99927.19;4979382;28;1152;-22
2022/11/24 12:29:24;;;;;;;;;;;;;;;29.66;26.44;99926.22;4979749;28;1153;-22
2022/11/24 12:31:53;;;;;;;;;;;;;;;29.96;26.14;99936.41;4962003;28;1922;-21
2022/11/24 12:34:24;;;;;;;;;;;;;;;29.90;26.37;99939.97;4965407;28;1055;-22
2022/11/24 12:36:59;;;;;;;;;;;;;;;28.84;27.40;99931.22;4979132;28;1114;-21
2022/11/24 12:39:30;;;;;;;;;;;;;;;29.26;27.36;99938.94;4966320;28;2443;-22
2022/11/24 12:42:08;;;;;;;;;;;;;;;29.78;26.77;99929.06;4979433;28;1209;-22
2022/11/24 12:44:35;;;;;;;;;;;;;;;29.37;26.96;99937.44;4970178;28;767;-21
2022/11/24 12:47:21;;;;;;;;;;;;;;;28.47;27.95;99939.88;4979174;28;1129;-22
2022/11/24 12:49:46;;;;;;;;;;;;;;;28.79;28.42;99942.72;4961815;28;1087;-21
2022/11/24 12:52:30;;;;;;;;;;;;;;;29.15;27.76;99945.91;4979210;28;1895;-21
2022/11/24 12:54:55;;;;;;;;;;;;;;;29.52;27.19;99947.97;4978695;28;1198;-21
2022/11/24 12:57:25;;;;;;;;;;;;;;;29.90;26.68;99954.38;4979070;28;1190;-21
2022/11/24 13:00:06;;;;;;;;;;;;;;;29.86;26.54;99958.59;4961779;28;1118;-21